sensor_id;sensor_type;location;lat;lon;timestamp;P1;durP1;ratioP1;P2;durP2;ratioP2
17886;SDS011;9069;52.044;7.472;2023-07-30T00:01:49;3.63;;;1.67;;
17886;SDS011;9069;52.044;7.472;2023-07-30T00:04:15;3.20;;;2.28;;
17886;SDS011;9069;52.044;7.472;2023-07-30T00:06:42;4.57;;;1.60;;
17886;SDS011;9069;52.044;7.472;2023-07-30T00:09:09;2.28;;;1.35;;
17886;SDS011;9069;52.044;7.472;2023-07-30T00:11:36;3.80;;;1.75;;
17886;SDS011;9069;52.044;7.472;2023-07-30T00:14:03;3.83;;;1.55;;
17886;SDS011;9069;52.044;7.472;2023-07-30T00:16:30;5.35;;;1.42;;
17886;SDS011;9069;52.044;7.472;2023-07-30T00:18:56;5.10;;;1.45;;
17886;SDS011;9069;52.044;7.472;2023-07-30T00:21:23;4.53;;;1.90;;
17886;SDS011;9069;52.044;7.472;2023-07-30T00:23:50;4.97;;;1.95;;
17886;SDS011;9069;52.044;7.472;2023-07-30T00:26:17;3.35;;;1.52;;
17886;SDS011;9069;52.044;7.472;2023-07-30T00:28:44;2.90;;;1.70;;
17886;SDS011;9069;52.044;7.472;2023-07-30T00:31:11;2.53;;;1.63;;
17886;SDS011;9069;52.044;7.472;2023-07-30T00:33:38;5.95;;;2.03;;
17886;SDS011;9069;52.044;7.472;2023-07-30T00:36:04;4.68;;;2.10;;
17886;SDS011;9069;52.044;7.472;2023-07-30T00:38:31;5.95;;;1.98;;
17886;SDS011;9069;52.044;7.472;2023-07-30T00:40:58;5.72;;;1.70;;
17886;SDS011;9069;52.044;7.472;2023-07-30T00:43:24;7.20;;;2.00;;
17886;SDS011;9069;52.044;7.472;2023-07-30T00:45:51;3.38;;;1.60;;
17886;SDS011;9069;52.044;7.472;2023-07-30T00:48:18;2.47;;;1.27;;
17886;SDS011;9069;52.044;7.472;2023-07-30T00:50:45;6.38;;;2.10;;
17886;SDS011;9069;52.044;7.472;2023-07-30T00:53:13;6.97;;;2.20;;
17886;SDS011;9069;52.044;7.472;2023-07-30T00:55:41;3.13;;;1.73;;
17886;SDS011;9069;52.044;7.472;2023-07-30T00:58:07;6.65;;;2.20;;
17886;SDS011;9069;52.044;7.472;2023-07-30T01:00:36;2.90;;;1.88;;
17886;SDS011;9069;52.044;7.472;2023-07-30T01:03:03;5.43;;;2.17;;
17886;SDS011;9069;52.044;7.472;2023-07-30T01:05:30;8.18;;;2.20;;
17886;SDS011;9069;52.044;7.472;2023-07-30T01:07:57;4.53;;;2.30;;
17886;SDS011;9069;52.044;7.472;2023-07-30T01:10:24;8.20;;;2.45;;
17886;SDS011;9069;52.044;7.472;2023-07-30T01:12:52;2.65;;;1.92;;
17886;SDS011;9069;52.044;7.472;2023-07-30T01:15:19;6.82;;;2.90;;
17886;SDS011;9069;52.044;7.472;2023-07-30T01:17:46;5.72;;;2.35;;
17886;SDS011;9069;52.044;7.472;2023-07-30T01:20:13;4.25;;;1.92;;
17886;SDS011;9069;52.044;7.472;2023-07-30T01:22:40;5.68;;;2.50;;
17886;SDS011;9069;52.044;7.472;2023-07-30T01:25:06;7.40;;;2.97;;
17886;SDS011;9069;52.044;7.472;2023-07-30T01:27:36;6.70;;;2.15;;
17886;SDS011;9069;52.044;7.472;2023-07-30T01:30:08;6.05;;;2.50;;
17886;SDS011;9069;52.044;7.472;2023-07-30T01:32:42;4.32;;;2.00;;
17886;SDS011;9069;52.044;7.472;2023-07-30T01:35:11;4.30;;;2.10;;
17886;SDS011;9069;52.044;7.472;2023-07-30T01:37:40;7.45;;;2.47;;
17886;SDS011;9069;52.044;7.472;2023-07-30T01:40:09;5.45;;;2.35;;
17886;SDS011;9069;52.044;7.472;2023-07-30T01:42:36;8.70;;;1.90;;
17886;SDS011;9069;52.044;7.472;2023-07-30T01:45:04;4.95;;;2.25;;
17886;SDS011;9069;52.044;7.472;2023-07-30T01:47:31;6.53;;;2.10;;
17886;SDS011;9069;52.044;7.472;2023-07-30T01:49:58;6.75;;;2.10;;
17886;SDS011;9069;52.044;7.472;2023-07-30T01:52:25;3.00;;;1.88;;
17886;SDS011;9069;52.044;7.472;2023-07-30T01:54:52;4.80;;;2.20;;
17886;SDS011;9069;52.044;7.472;2023-07-30T01:57:19;8.00;;;1.92;;
17886;SDS011;9069;52.044;7.472;2023-07-30T01:59:46;4.78;;;2.08;;
17886;SDS011;9069;52.044;7.472;2023-07-30T02:02:13;5.38;;;2.08;;
17886;SDS011;9069;52.044;7.472;2023-07-30T02:04:40;4.95;;;2.28;;
17886;SDS011;9069;52.044;7.472;2023-07-30T02:07:07;8.32;;;2.30;;
17886;SDS011;9069;52.044;7.472;2023-07-30T02:09:33;2.25;;;1.83;;
17886;SDS011;9069;52.044;7.472;2023-07-30T02:12:00;3.75;;;1.90;;
17886;SDS011;9069;52.044;7.472;2023-07-30T02:14:27;6.32;;;2.08;;
17886;SDS011;9069;52.044;7.472;2023-07-30T02:16:59;4.03;;;1.85;;
17886;SDS011;9069;52.044;7.472;2023-07-30T02:19:26;3.38;;;1.65;;
17886;SDS011;9069;52.044;7.472;2023-07-30T02:21:53;3.47;;;1.70;;
17886;SDS011;9069;52.044;7.472;2023-07-30T02:24:19;3.55;;;2.20;;
17886;SDS011;9069;52.044;7.472;2023-07-30T02:26:46;5.85;;;2.30;;
17886;SDS011;9069;52.044;7.472;2023-07-30T02:29:16;3.90;;;1.90;;
17886;SDS011;9069;52.044;7.472;2023-07-30T02:31:42;4.90;;;2.10;;
17886;SDS011;9069;52.044;7.472;2023-07-30T02:34:09;4.28;;;1.83;;
17886;SDS011;9069;52.044;7.472;2023-07-30T02:36:36;4.10;;;1.98;;
17886;SDS011;9069;52.044;7.472;2023-07-30T02:39:03;5.18;;;2.47;;
17886;SDS011;9069;52.044;7.472;2023-07-30T02:41:29;3.22;;;1.88;;
17886;SDS011;9069;52.044;7.472;2023-07-30T02:43:56;6.65;;;2.20;;
17886;SDS011;9069;52.044;7.472;2023-07-30T02:46:23;4.57;;;1.75;;
17886;SDS011;9069;52.044;7.472;2023-07-30T02:48:50;5.25;;;2.38;;
17886;SDS011;9069;52.044;7.472;2023-07-30T02:51:17;4.53;;;1.80;;
17886;SDS011;9069;52.044;7.472;2023-07-30T02:53:43;7.97;;;2.10;;
17886;SDS011;9069;52.044;7.472;2023-07-30T02:56:10;5.40;;;1.70;;
17886;SDS011;9069;52.044;7.472;2023-07-30T02:58:37;4.70;;;1.90;;
17886;SDS011;9069;52.044;7.472;2023-07-30T03:01:05;2.55;;;1.77;;
17886;SDS011;9069;52.044;7.472;2023-07-30T03:03:33;3.35;;;1.73;;
17886;SDS011;9069;52.044;7.472;2023-07-30T03:06:00;5.00;;;1.67;;
17886;SDS011;9069;52.044;7.472;2023-07-30T03:08:27;6.78;;;2.38;;
17886;SDS011;9069;52.044;7.472;2023-07-30T03:10:53;5.03;;;1.70;;
17886;SDS011;9069;52.044;7.472;2023-07-30T03:13:23;5.75;;;1.98;;
17886;SDS011;9069;52.044;7.472;2023-07-30T03:15:49;3.88;;;1.58;;
17886;SDS011;9069;52.044;7.472;2023-07-30T03:18:16;9.90;;;1.88;;
17886;SDS011;9069;52.044;7.472;2023-07-30T03:20:43;4.68;;;1.67;;
17886;SDS011;9069;52.044;7.472;2023-07-30T03:23:10;8.55;;;1.80;;
17886;SDS011;9069;52.044;7.472;2023-07-30T03:25:37;10.48;;;2.08;;
17886;SDS011;9069;52.044;7.472;2023-07-30T03:28:04;5.00;;;2.03;;
17886;SDS011;9069;52.044;7.472;2023-07-30T03:30:30;6.30;;;1.98;;
17886;SDS011;9069;52.044;7.472;2023-07-30T03:32:57;5.88;;;1.52;;
17886;SDS011;9069;52.044;7.472;2023-07-30T03:35:24;2.47;;;1.45;;
17886;SDS011;9069;52.044;7.472;2023-07-30T03:37:51;5.45;;;1.80;;
17886;SDS011;9069;52.044;7.472;2023-07-30T03:40:18;5.22;;;1.90;;
17886;SDS011;9069;52.044;7.472;2023-07-30T03:42:44;6.18;;;1.80;;
17886;SDS011;9069;52.044;7.472;2023-07-30T03:45:11;4.78;;;1.83;;
17886;SDS011;9069;52.044;7.472;2023-07-30T03:47:38;3.65;;;1.55;;
17886;SDS011;9069;52.044;7.472;2023-07-30T03:50:05;4.63;;;1.95;;
17886;SDS011;9069;52.044;7.472;2023-07-30T03:52:32;4.47;;;1.60;;
17886;SDS011;9069;52.044;7.472;2023-07-30T03:54:59;7.13;;;2.00;;
17886;SDS011;9069;52.044;7.472;2023-07-30T03:57:26;2.67;;;1.65;;
17886;SDS011;9069;52.044;7.472;2023-07-30T03:59:53;9.55;;;2.08;;
17886;SDS011;9069;52.044;7.472;2023-07-30T04:02:19;6.47;;;1.80;;
17886;SDS011;9069;52.044;7.472;2023-07-30T04:04:46;5.35;;;1.67;;
17886;SDS011;9069;52.044;7.472;2023-07-30T04:07:16;4.43;;;1.75;;
17886;SDS011;9069;52.044;7.472;2023-07-30T04:09:42;9.05;;;1.92;;
17886;SDS011;9069;52.044;7.472;2023-07-30T04:12:09;3.88;;;1.80;;
17886;SDS011;9069;52.044;7.472;2023-07-30T04:14:36;4.60;;;2.22;;
17886;SDS011;9069;52.044;7.472;2023-07-30T04:17:03;5.63;;;1.92;;
17886;SDS011;9069;52.044;7.472;2023-07-30T04:19:30;4.93;;;1.50;;
17886;SDS011;9069;52.044;7.472;2023-07-30T04:21:56;11.05;;;1.88;;
17886;SDS011;9069;52.044;7.472;2023-07-30T04:24:23;10.95;;;1.70;;
17886;SDS011;9069;52.044;7.472;2023-07-30T04:26:52;4.53;;;1.38;;
17886;SDS011;9069;52.044;7.472;2023-07-30T04:29:18;5.57;;;1.90;;
17886;SDS011;9069;52.044;7.472;2023-07-30T04:31:45;3.47;;;1.65;;
17886;SDS011;9069;52.044;7.472;2023-07-30T04:34:12;5.07;;;1.83;;
17886;SDS011;9069;52.044;7.472;2023-07-30T04:36:40;3.78;;;1.85;;
17886;SDS011;9069;52.044;7.472;2023-07-30T04:39:07;4.35;;;1.65;;
17886;SDS011;9069;52.044;7.472;2023-07-30T04:41:34;5.07;;;1.90;;
17886;SDS011;9069;52.044;7.472;2023-07-30T04:44:03;6.38;;;2.10;;
17886;SDS011;9069;52.044;7.472;2023-07-30T04:46:30;4.95;;;1.98;;
17886;SDS011;9069;52.044;7.472;2023-07-30T04:48:57;6.03;;;1.88;;
17886;SDS011;9069;52.044;7.472;2023-07-30T04:51:25;3.83;;;1.40;;
17886;SDS011;9069;52.044;7.472;2023-07-30T04:53:52;2.53;;;1.67;;
17886;SDS011;9069;52.044;7.472;2023-07-30T04:56:18;7.47;;;2.50;;
17886;SDS011;9069;52.044;7.472;2023-07-30T04:58:45;6.72;;;2.65;;
17886;SDS011;9069;52.044;7.472;2023-07-30T05:01:12;9.27;;;2.05;;
17886;SDS011;9069;52.044;7.472;2023-07-30T05:03:39;7.18;;;2.42;;
17886;SDS011;9069;52.044;7.472;2023-07-30T05:06:05;5.43;;;1.95;;
17886;SDS011;9069;52.044;7.472;2023-07-30T05:08:32;6.97;;;1.83;;
17886;SDS011;9069;52.044;7.472;2023-07-30T05:10:59;3.45;;;1.83;;
17886;SDS011;9069;52.044;7.472;2023-07-30T05:13:26;8.57;;;2.25;;
17886;SDS011;9069;52.044;7.472;2023-07-30T05:15:52;9.70;;;2.25;;
17886;SDS011;9069;52.044;7.472;2023-07-30T05:18:19;2.85;;;1.85;;
17886;SDS011;9069;52.044;7.472;2023-07-30T05:20:46;5.95;;;2.10;;
17886;SDS011;9069;52.044;7.472;2023-07-30T05:23:13;11.82;;;2.80;;
17886;SDS011;9069;52.044;7.472;2023-07-30T05:25:40;5.03;;;2.58;;
17886;SDS011;9069;52.044;7.472;2023-07-30T05:28:07;6.55;;;3.00;;
17886;SDS011;9069;52.044;7.472;2023-07-30T05:30:34;9.65;;;3.10;;
17886;SDS011;9069;52.044;7.472;2023-07-30T05:33:01;8.23;;;2.90;;
17886;SDS011;9069;52.044;7.472;2023-07-30T05:35:27;9.45;;;3.03;;
17886;SDS011;9069;52.044;7.472;2023-07-30T05:37:58;11.25;;;3.60;;
17886;SDS011;9069;52.044;7.472;2023-07-30T05:40:25;10.02;;;3.15;;
17886;SDS011;9069;52.044;7.472;2023-07-30T05:42:52;9.38;;;4.47;;
17886;SDS011;9069;52.044;7.472;2023-07-30T05:45:19;8.30;;;3.90;;
17886;SDS011;9069;52.044;7.472;2023-07-30T05:47:45;12.73;;;4.88;;
17886;SDS011;9069;52.044;7.472;2023-07-30T05:50:12;12.40;;;4.63;;
17886;SDS011;9069;52.044;7.472;2023-07-30T05:52:39;12.88;;;4.32;;
17886;SDS011;9069;52.044;7.472;2023-07-30T05:55:06;11.60;;;4.68;;
17886;SDS011;9069;52.044;7.472;2023-07-30T05:57:33;12.82;;;5.35;;
17886;SDS011;9069;52.044;7.472;2023-07-30T06:00:00;14.65;;;4.93;;
17886;SDS011;9069;52.044;7.472;2023-07-30T06:02:37;10.93;;;5.20;;
17886;SDS011;9069;52.044;7.472;2023-07-30T06:05:04;11.30;;;5.07;;
17886;SDS011;9069;52.044;7.472;2023-07-30T06:07:31;9.60;;;5.43;;
17886;SDS011;9069;52.044;7.472;2023-07-30T06:09:57;11.55;;;5.20;;
17886;SDS011;9069;52.044;7.472;2023-07-30T06:12:24;15.85;;;5.78;;
17886;SDS011;9069;52.044;7.472;2023-07-30T06:14:51;13.73;;;5.45;;
17886;SDS011;9069;52.044;7.472;2023-07-30T06:17:17;19.85;;;6.25;;
17886;SDS011;9069;52.044;7.472;2023-07-30T06:19:44;11.10;;;5.13;;
17886;SDS011;9069;52.044;7.472;2023-07-30T06:22:11;15.48;;;6.03;;
17886;SDS011;9069;52.044;7.472;2023-07-30T06:24:38;13.10;;;5.40;;
17886;SDS011;9069;52.044;7.472;2023-07-30T06:27:04;17.85;;;6.18;;
17886;SDS011;9069;52.044;7.472;2023-07-30T06:29:32;14.30;;;5.82;;
17886;SDS011;9069;52.044;7.472;2023-07-30T06:31:58;14.88;;;5.75;;
17886;SDS011;9069;52.044;7.472;2023-07-30T06:34:25;16.55;;;6.22;;
17886;SDS011;9069;52.044;7.472;2023-07-30T06:36:52;14.55;;;6.13;;
17886;SDS011;9069;52.044;7.472;2023-07-30T06:39:18;18.48;;;6.38;;
17886;SDS011;9069;52.044;7.472;2023-07-30T06:41:45;14.45;;;5.60;;
17886;SDS011;9069;52.044;7.472;2023-07-30T06:44:13;18.70;;;6.53;;
17886;SDS011;9069;52.044;7.472;2023-07-30T06:46:39;18.80;;;6.20;;
17886;SDS011;9069;52.044;7.472;2023-07-30T06:49:06;16.13;;;6.28;;
17886;SDS011;9069;52.044;7.472;2023-07-30T06:51:33;12.35;;;5.72;;
17886;SDS011;9069;52.044;7.472;2023-07-30T06:53:59;17.75;;;5.30;;
17886;SDS011;9069;52.044;7.472;2023-07-30T06:56:26;16.13;;;5.90;;
17886;SDS011;9069;52.044;7.472;2023-07-30T06:58:54;15.52;;;6.35;;
17886;SDS011;9069;52.044;7.472;2023-07-30T07:01:21;12.95;;;6.10;;
17886;SDS011;9069;52.044;7.472;2023-07-30T07:03:48;13.50;;;5.45;;
17886;SDS011;9069;52.044;7.472;2023-07-30T07:06:15;13.75;;;5.70;;
17886;SDS011;9069;52.044;7.472;2023-07-30T07:08:41;19.20;;;6.55;;
17886;SDS011;9069;52.044;7.472;2023-07-30T07:11:08;13.45;;;6.13;;
17886;SDS011;9069;52.044;7.472;2023-07-30T07:13:35;15.93;;;6.45;;
17886;SDS011;9069;52.044;7.472;2023-07-30T07:16:02;17.58;;;6.75;;
17886;SDS011;9069;52.044;7.472;2023-07-30T07:18:29;14.75;;;6.13;;
17886;SDS011;9069;52.044;7.472;2023-07-30T07:20:56;21.77;;;6.60;;
17886;SDS011;9069;52.044;7.472;2023-07-30T07:23:23;15.77;;;6.13;;
17886;SDS011;9069;52.044;7.472;2023-07-30T07:25:50;13.27;;;5.55;;
17886;SDS011;9069;52.044;7.472;2023-07-30T07:28:18;17.33;;;5.60;;
17886;SDS011;9069;52.044;7.472;2023-07-30T07:30:45;14.80;;;5.75;;
17886;SDS011;9069;52.044;7.472;2023-07-30T07:33:12;16.80;;;5.55;;
17886;SDS011;9069;52.044;7.472;2023-07-30T07:35:39;13.13;;;5.18;;
17886;SDS011;9069;52.044;7.472;2023-07-30T07:38:06;10.45;;;5.18;;
17886;SDS011;9069;52.044;7.472;2023-07-30T07:40:37;15.50;;;5.47;;
17886;SDS011;9069;52.044;7.472;2023-07-30T07:43:07;15.52;;;5.78;;
17886;SDS011;9069;52.044;7.472;2023-07-30T07:45:34;18.27;;;7.05;;
17886;SDS011;9069;52.044;7.472;2023-07-30T07:48:01;15.13;;;6.28;;
17886;SDS011;9069;52.044;7.472;2023-07-30T07:50:28;14.48;;;5.53;;
17886;SDS011;9069;52.044;7.472;2023-07-30T07:52:55;14.73;;;6.18;;
17886;SDS011;9069;52.044;7.472;2023-07-30T07:55:21;14.15;;;6.15;;
17886;SDS011;9069;52.044;7.472;2023-07-30T07:57:49;16.38;;;5.47;;
17886;SDS011;9069;52.044;7.472;2023-07-30T08:00:16;18.77;;;5.90;;
17886;SDS011;9069;52.044;7.472;2023-07-30T08:02:43;10.98;;;5.03;;
17886;SDS011;9069;52.044;7.472;2023-07-30T08:05:10;14.77;;;5.40;;
17886;SDS011;9069;52.044;7.472;2023-07-30T08:07:37;13.77;;;5.35;;
17886;SDS011;9069;52.044;7.472;2023-07-30T08:10:04;14.27;;;4.93;;
17886;SDS011;9069;52.044;7.472;2023-07-30T08:12:32;15.40;;;6.15;;
17886;SDS011;9069;52.044;7.472;2023-07-30T08:14:59;13.40;;;5.53;;
17886;SDS011;9069;52.044;7.472;2023-07-30T08:17:25;12.15;;;4.95;;
17886;SDS011;9069;52.044;7.472;2023-07-30T08:19:52;16.95;;;5.13;;
17886;SDS011;9069;52.044;7.472;2023-07-30T08:22:19;15.25;;;4.78;;
17886;SDS011;9069;52.044;7.472;2023-07-30T08:24:46;12.57;;;5.53;;
17886;SDS011;9069;52.044;7.472;2023-07-30T08:27:12;14.82;;;5.88;;
17886;SDS011;9069;52.044;7.472;2023-07-30T08:29:40;12.50;;;5.47;;
17886;SDS011;9069;52.044;7.472;2023-07-30T08:32:07;10.07;;;4.80;;
17886;SDS011;9069;52.044;7.472;2023-07-30T08:34:34;15.57;;;5.50;;
17886;SDS011;9069;52.044;7.472;2023-07-30T08:37:00;11.93;;;4.75;;
17886;SDS011;9069;52.044;7.472;2023-07-30T08:39:28;14.57;;;5.28;;
17886;SDS011;9069;52.044;7.472;2023-07-30T08:41:54;9.57;;;4.90;;
17886;SDS011;9069;52.044;7.472;2023-07-30T08:44:21;16.80;;;4.20;;
17886;SDS011;9069;52.044;7.472;2023-07-30T08:46:48;11.88;;;4.78;;
17886;SDS011;9069;52.044;7.472;2023-07-30T08:49:15;11.82;;;4.88;;
17886;SDS011;9069;52.044;7.472;2023-07-30T08:51:42;12.05;;;4.95;;
17886;SDS011;9069;52.044;7.472;2023-07-30T08:54:10;13.63;;;5.13;;
17886;SDS011;9069;52.044;7.472;2023-07-30T08:56:39;12.45;;;5.13;;
17886;SDS011;9069;52.044;7.472;2023-07-30T08:59:07;12.35;;;4.82;;
17886;SDS011;9069;52.044;7.472;2023-07-30T09:01:36;18.67;;;4.82;;
17886;SDS011;9069;52.044;7.472;2023-07-30T09:04:05;10.93;;;4.60;;
17886;SDS011;9069;52.044;7.472;2023-07-30T09:06:32;11.40;;;5.05;;
17886;SDS011;9069;52.044;7.472;2023-07-30T09:08:59;13.48;;;4.28;;
17886;SDS011;9069;52.044;7.472;2023-07-30T09:11:26;15.20;;;5.43;;
17886;SDS011;9069;52.044;7.472;2023-07-30T09:13:54;14.32;;;4.32;;
17886;SDS011;9069;52.044;7.472;2023-07-30T09:16:25;8.57;;;4.32;;
17886;SDS011;9069;52.044;7.472;2023-07-30T09:18:53;12.73;;;4.90;;
17886;SDS011;9069;52.044;7.472;2023-07-30T09:21:28;12.63;;;4.43;;
17886;SDS011;9069;52.044;7.472;2023-07-30T09:23:57;10.30;;;3.97;;
17886;SDS011;9069;52.044;7.472;2023-07-30T09:26:26;11.48;;;4.00;;
17886;SDS011;9069;52.044;7.472;2023-07-30T09:28:55;11.55;;;4.25;;
17886;SDS011;9069;52.044;7.472;2023-07-30T09:31:22;9.63;;;3.95;;
17886;SDS011;9069;52.044;7.472;2023-07-30T09:33:48;10.00;;;3.35;;
17886;SDS011;9069;52.044;7.472;2023-07-30T09:36:18;10.20;;;3.33;;
17886;SDS011;9069;52.044;7.472;2023-07-30T09:38:45;11.88;;;3.28;;
17886;SDS011;9069;52.044;7.472;2023-07-30T09:41:12;8.38;;;3.10;;
17886;SDS011;9069;52.044;7.472;2023-07-30T09:43:41;7.45;;;3.08;;
17886;SDS011;9069;52.044;7.472;2023-07-30T09:46:08;6.50;;;2.80;;
17886;SDS011;9069;52.044;7.472;2023-07-30T09:48:35;8.52;;;2.78;;
17886;SDS011;9069;52.044;7.472;2023-07-30T09:51:02;10.55;;;2.55;;
17886;SDS011;9069;52.044;7.472;2023-07-30T09:53:30;10.25;;;3.00;;
17886;SDS011;9069;52.044;7.472;2023-07-30T09:56:04;7.32;;;2.95;;
17886;SDS011;9069;52.044;7.472;2023-07-30T09:58:34;6.18;;;2.40;;
17886;SDS011;9069;52.044;7.472;2023-07-30T10:01:04;8.13;;;2.70;;
17886;SDS011;9069;52.044;7.472;2023-07-30T10:03:32;7.95;;;2.78;;
17886;SDS011;9069;52.044;7.472;2023-07-30T10:06:02;4.28;;;2.60;;
17886;SDS011;9069;52.044;7.472;2023-07-30T10:08:31;6.00;;;2.25;;
17886;SDS011;9069;52.044;7.472;2023-07-30T10:11:03;7.18;;;2.70;;
17886;SDS011;9069;52.044;7.472;2023-07-30T10:13:33;8.25;;;2.22;;
17886;SDS011;9069;52.044;7.472;2023-07-30T10:16:01;9.27;;;2.33;;
17886;SDS011;9069;52.044;7.472;2023-07-30T10:19:02;5.97;;;1.90;;
17886;SDS011;9069;52.044;7.472;2023-07-30T10:21:25;5.45;;;2.08;;
17886;SDS011;9069;52.044;7.472;2023-07-30T10:23:58;4.05;;;1.98;;
17886;SDS011;9069;52.044;7.472;2023-07-30T10:26:32;5.10;;;1.88;;
17886;SDS011;9069;52.044;7.472;2023-07-30T10:29:17;6.82;;;1.85;;
17886;SDS011;9069;52.044;7.472;2023-07-30T10:34:17;4.80;;;1.85;;
17886;SDS011;9069;52.044;7.472;2023-07-30T10:36:48;6.13;;;2.13;;
17886;SDS011;9069;52.044;7.472;2023-07-30T10:39:20;5.88;;;1.98;;
17886;SDS011;9069;52.044;7.472;2023-07-30T10:41:53;7.60;;;1.90;;
17886;SDS011;9069;52.044;7.472;2023-07-30T10:44:32;4.60;;;1.83;;
17886;SDS011;9069;52.044;7.472;2023-07-30T10:47:01;2.47;;;1.60;;
17886;SDS011;9069;52.044;7.472;2023-07-30T10:49:35;2.35;;;1.08;;
17886;SDS011;9069;52.044;7.472;2023-07-30T10:52:06;4.22;;;1.38;;
17886;SDS011;9069;52.044;7.472;2023-07-30T10:54:33;8.85;;;1.58;;
17886;SDS011;9069;52.044;7.472;2023-07-30T10:57:03;4.35;;;1.50;;
17886;SDS011;9069;52.044;7.472;2023-07-30T10:59:34;4.50;;;1.50;;
17886;SDS011;9069;52.044;7.472;2023-07-30T11:02:04;4.70;;;1.42;;
17886;SDS011;9069;52.044;7.472;2023-07-30T11:04:33;5.30;;;1.48;;
17886;SDS011;9069;52.044;7.472;2023-07-30T11:07:01;7.65;;;1.60;;
17886;SDS011;9069;52.044;7.472;2023-07-30T11:09:30;3.28;;;1.25;;
17886;SDS011;9069;52.044;7.472;2023-07-30T11:11:56;4.97;;;1.40;;
17886;SDS011;9069;52.044;7.472;2023-07-30T11:14:24;7.05;;;2.10;;
17886;SDS011;9069;52.044;7.472;2023-07-30T11:16:58;7.65;;;1.63;;
17886;SDS011;9069;52.044;7.472;2023-07-30T11:19:26;8.23;;;1.90;;
17886;SDS011;9069;52.044;7.472;2023-07-30T11:21:54;4.15;;;1.73;;
17886;SDS011;9069;52.044;7.472;2023-07-30T11:24:33;4.07;;;1.33;;
17886;SDS011;9069;52.044;7.472;2023-07-30T11:27:00;4.30;;;1.40;;
17886;SDS011;9069;52.044;7.472;2023-07-30T11:29:28;5.38;;;2.03;;
17886;SDS011;9069;52.044;7.472;2023-07-30T11:31:56;4.95;;;1.35;;
17886;SDS011;9069;52.044;7.472;2023-07-30T11:34:28;6.20;;;1.70;;
17886;SDS011;9069;52.044;7.472;2023-07-30T11:36:55;5.32;;;1.23;;
17886;SDS011;9069;52.044;7.472;2023-07-30T11:39:24;5.90;;;1.30;;
17886;SDS011;9069;52.044;7.472;2023-07-30T11:41:51;6.22;;;1.42;;
17886;SDS011;9069;52.044;7.472;2023-07-30T11:44:31;8.13;;;1.90;;
17886;SDS011;9069;52.044;7.472;2023-07-30T11:47:05;3.05;;;1.00;;
17886;SDS011;9069;52.044;7.472;2023-07-30T11:49:32;3.78;;;1.20;;
17886;SDS011;9069;52.044;7.472;2023-07-30T11:52:08;3.97;;;1.35;;
17886;SDS011;9069;52.044;7.472;2023-07-30T11:54:36;4.32;;;1.00;;
17886;SDS011;9069;52.044;7.472;2023-07-30T11:57:03;4.50;;;1.40;;
17886;SDS011;9069;52.044;7.472;2023-07-30T11:59:30;3.90;;;1.20;;
17886;SDS011;9069;52.044;7.472;2023-07-30T12:01:57;4.05;;;1.27;;
17886;SDS011;9069;52.044;7.472;2023-07-30T12:04:24;7.18;;;1.45;;
17886;SDS011;9069;52.044;7.472;2023-07-30T12:06:56;5.13;;;1.30;;
17886;SDS011;9069;52.044;7.472;2023-07-30T12:09:23;2.58;;;1.15;;
17886;SDS011;9069;52.044;7.472;2023-07-30T12:11:53;4.00;;;1.20;;
17886;SDS011;9069;52.044;7.472;2023-07-30T12:14:25;1.13;;;0.93;;
17886;SDS011;9069;52.044;7.472;2023-07-30T12:16:57;6.97;;;1.05;;
17886;SDS011;9069;52.044;7.472;2023-07-30T12:19:24;2.03;;;0.85;;
17886;SDS011;9069;52.044;7.472;2023-07-30T12:21:51;3.90;;;1.40;;
17886;SDS011;9069;52.044;7.472;2023-07-30T12:24:18;4.30;;;1.02;;
17886;SDS011;9069;52.044;7.472;2023-07-30T12:26:45;5.28;;;1.30;;
17886;SDS011;9069;52.044;7.472;2023-07-30T12:29:11;4.03;;;1.40;;
17886;SDS011;9069;52.044;7.472;2023-07-30T12:31:38;2.95;;;1.17;;
17886;SDS011;9069;52.044;7.472;2023-07-30T12:34:06;5.30;;;1.30;;
17886;SDS011;9069;52.044;7.472;2023-07-30T12:36:32;4.25;;;1.15;;
17886;SDS011;9069;52.044;7.472;2023-07-30T12:38:59;2.60;;;0.93;;
17886;SDS011;9069;52.044;7.472;2023-07-30T12:41:26;4.25;;;1.00;;
17886;SDS011;9069;52.044;7.472;2023-07-30T12:43:53;8.13;;;1.60;;
17886;SDS011;9069;52.044;7.472;2023-07-30T12:46:22;3.05;;;0.90;;
17886;SDS011;9069;52.044;7.472;2023-07-30T12:48:49;2.25;;;0.70;;
17886;SDS011;9069;52.044;7.472;2023-07-30T12:51:17;1.90;;;1.05;;
17886;SDS011;9069;52.044;7.472;2023-07-30T12:53:43;1.55;;;0.65;;
17886;SDS011;9069;52.044;7.472;2023-07-30T12:56:10;2.80;;;0.70;;
17886;SDS011;9069;52.044;7.472;2023-07-30T12:58:38;2.78;;;0.80;;
17886;SDS011;9069;52.044;7.472;2023-07-30T13:01:06;2.33;;;0.80;;
17886;SDS011;9069;52.044;7.472;2023-07-30T13:03:33;0.93;;;0.65;;
17886;SDS011;9069;52.044;7.472;2023-07-30T13:06:00;4.93;;;1.05;;
17886;SDS011;9069;52.044;7.472;2023-07-30T13:08:27;1.48;;;0.60;;
17886;SDS011;9069;52.044;7.472;2023-07-30T13:10:53;2.72;;;0.70;;
17886;SDS011;9069;52.044;7.472;2023-07-30T13:13:20;4.05;;;0.85;;
17886;SDS011;9069;52.044;7.472;2023-07-30T13:15:47;2.38;;;0.80;;
17886;SDS011;9069;52.044;7.472;2023-07-30T13:18:14;3.83;;;1.00;;
17886;SDS011;9069;52.044;7.472;2023-07-30T13:20:40;2.20;;;0.90;;
17886;SDS011;9069;52.044;7.472;2023-07-30T13:23:07;3.22;;;1.00;;
17886;SDS011;9069;52.044;7.472;2023-07-30T13:25:34;4.63;;;1.20;;
17886;SDS011;9069;52.044;7.472;2023-07-30T13:28:00;3.67;;;1.00;;
17886;SDS011;9069;52.044;7.472;2023-07-30T13:30:27;7.32;;;1.42;;
17886;SDS011;9069;52.044;7.472;2023-07-30T13:32:54;2.88;;;1.00;;
17886;SDS011;9069;52.044;7.472;2023-07-30T13:35:21;4.15;;;1.00;;
17886;SDS011;9069;52.044;7.472;2023-07-30T13:37:48;1.92;;;0.93;;
17886;SDS011;9069;52.044;7.472;2023-07-30T13:40:15;4.53;;;1.20;;
17886;SDS011;9069;52.044;7.472;2023-07-30T13:42:41;4.97;;;1.52;;
17886;SDS011;9069;52.044;7.472;2023-07-30T13:45:08;5.03;;;1.20;;
17886;SDS011;9069;52.044;7.472;2023-07-30T13:47:35;3.08;;;0.98;;
17886;SDS011;9069;52.044;7.472;2023-07-30T13:50:02;3.67;;;1.20;;
17886;SDS011;9069;52.044;7.472;2023-07-30T13:52:29;4.72;;;1.20;;
17886;SDS011;9069;52.044;7.472;2023-07-30T13:54:55;3.25;;;0.80;;
17886;SDS011;9069;52.044;7.472;2023-07-30T13:57:23;4.82;;;0.90;;
17886;SDS011;9069;52.044;7.472;2023-07-30T13:59:51;5.03;;;1.00;;
17886;SDS011;9069;52.044;7.472;2023-07-30T14:02:18;2.92;;;0.90;;
17886;SDS011;9069;52.044;7.472;2023-07-30T14:04:45;2.25;;;1.00;;
17886;SDS011;9069;52.044;7.472;2023-07-30T14:07:11;3.28;;;0.95;;
17886;SDS011;9069;52.044;7.472;2023-07-30T14:09:38;2.92;;;1.15;;
17886;SDS011;9069;52.044;7.472;2023-07-30T14:12:05;3.58;;;1.35;;
17886;SDS011;9069;52.044;7.472;2023-07-30T14:14:32;4.82;;;1.30;;
17886;SDS011;9069;52.044;7.472;2023-07-30T14:16:59;3.58;;;1.00;;
17886;SDS011;9069;52.044;7.472;2023-07-30T14:19:27;3.65;;;1.10;;
17886;SDS011;9069;52.044;7.472;2023-07-30T14:21:55;2.25;;;0.82;;
17886;SDS011;9069;52.044;7.472;2023-07-30T14:24:21;1.92;;;0.98;;
17886;SDS011;9069;52.044;7.472;2023-07-30T14:26:52;1.90;;;0.90;;
17886;SDS011;9069;52.044;7.472;2023-07-30T14:29:18;3.33;;;1.05;;
17886;SDS011;9069;52.044;7.472;2023-07-30T14:31:45;3.72;;;1.20;;
17886;SDS011;9069;52.044;7.472;2023-07-30T14:34:12;2.90;;;1.25;;
17886;SDS011;9069;52.044;7.472;2023-07-30T14:36:39;2.80;;;0.77;;
17886;SDS011;9069;52.044;7.472;2023-07-30T14:39:06;3.78;;;1.25;;
17886;SDS011;9069;52.044;7.472;2023-07-30T14:41:32;3.60;;;1.17;;
17886;SDS011;9069;52.044;7.472;2023-07-30T14:44:00;4.82;;;1.30;;
17886;SDS011;9069;52.044;7.472;2023-07-30T14:46:27;5.07;;;0.98;;
17886;SDS011;9069;52.044;7.472;2023-07-30T14:48:53;3.85;;;1.10;;
17886;SDS011;9069;52.044;7.472;2023-07-30T14:51:20;4.18;;;1.20;;
17886;SDS011;9069;52.044;7.472;2023-07-30T14:53:47;5.50;;;1.20;;
17886;SDS011;9069;52.044;7.472;2023-07-30T14:56:14;4.07;;;0.90;;
17886;SDS011;9069;52.044;7.472;2023-07-30T14:58:41;4.45;;;1.27;;
17886;SDS011;9069;52.044;7.472;2023-07-30T15:01:07;4.10;;;1.40;;
17886;SDS011;9069;52.044;7.472;2023-07-30T15:03:37;2.58;;;1.30;;